sensor_id;sensor_type;location;lat;lon;timestamp;P1;durP1;ratioP1;P2;durP2;ratioP2
15354;SDS011;7777;52.254;9.618;2023-02-04T00:01:43;23.33;;;4.77;;
15354;SDS011;7777;52.254;9.618;2023-02-04T00:04:14;20.33;;;4.43;;
15354;SDS011;7777;52.254;9.618;2023-02-04T00:06:40;23.03;;;6.13;;
15354;SDS011;7777;52.254;9.618;2023-02-04T00:09:06;22.73;;;5.87;;
15354;SDS011;7777;52.254;9.618;2023-02-04T00:11:32;29.10;;;6.00;;
15354;SDS011;7777;52.254;9.618;2023-02-04T00:13:58;21.67;;;5.10;;
15354;SDS011;7777;52.254;9.618;2023-02-04T00:16:25;21.60;;;4.97;;
15354;SDS011;7777;52.254;9.618;2023-02-04T00:18:51;25.70;;;4.53;;
15354;SDS011;7777;52.254;9.618;2023-02-04T00:21:17;22.70;;;4.70;;
15354;SDS011;7777;52.254;9.618;2023-02-04T00:23:42;23.30;;;4.97;;
15354;SDS011;7777;52.254;9.618;2023-02-04T00:26:08;24.63;;;3.90;;
15354;SDS011;7777;52.254;9.618;2023-02-04T00:28:34;31.53;;;5.60;;
15354;SDS011;7777;52.254;9.618;2023-02-04T00:31:00;27.33;;;5.13;;
15354;SDS011;7777;52.254;9.618;2023-02-04T00:33:25;27.17;;;4.60;;
15354;SDS011;7777;52.254;9.618;2023-02-04T00:35:51;22.17;;;5.20;;
15354;SDS011;7777;52.254;9.618;2023-02-04T00:38:17;15.77;;;3.90;;
15354;SDS011;7777;52.254;9.618;2023-02-04T00:40:43;29.20;;;5.40;;
15354;SDS011;7777;52.254;9.618;2023-02-04T00:43:09;16.50;;;4.47;;
15354;SDS011;7777;52.254;9.618;2023-02-04T00:45:34;18.47;;;4.03;;
15354;SDS011;7777;52.254;9.618;2023-02-04T00:48:00;20.87;;;4.80;;
15354;SDS011;7777;52.254;9.618;2023-02-04T00:50:26;28.93;;;6.73;;
15354;SDS011;7777;52.254;9.618;2023-02-04T00:52:52;20.37;;;4.53;;
15354;SDS011;7777;52.254;9.618;2023-02-04T00:55:18;21.00;;;4.10;;
15354;SDS011;7777;52.254;9.618;2023-02-04T00:57:44;23.93;;;4.07;;
15354;SDS011;7777;52.254;9.618;2023-02-04T01:00:14;19.67;;;3.97;;
15354;SDS011;7777;52.254;9.618;2023-02-04T01:02:40;14.00;;;2.80;;
15354;SDS011;7777;52.254;9.618;2023-02-04T01:05:06;16.70;;;2.77;;
15354;SDS011;7777;52.254;9.618;2023-02-04T01:07:34;14.20;;;3.40;;
15354;SDS011;7777;52.254;9.618;2023-02-04T01:10:00;17.90;;;4.00;;
15354;SDS011;7777;52.254;9.618;2023-02-04T01:12:26;21.57;;;4.27;;
15354;SDS011;7777;52.254;9.618;2023-02-04T01:14:53;14.57;;;2.77;;
15354;SDS011;7777;52.254;9.618;2023-02-04T01:17:19;15.53;;;3.90;;
15354;SDS011;7777;52.254;9.618;2023-02-04T01:19:45;19.67;;;3.47;;
15354;SDS011;7777;52.254;9.618;2023-02-04T01:22:12;18.30;;;3.20;;
15354;SDS011;7777;52.254;9.618;2023-02-04T01:24:38;14.07;;;2.73;;
15354;SDS011;7777;52.254;9.618;2023-02-04T01:27:03;14.57;;;3.10;;
15354;SDS011;7777;52.254;9.618;2023-02-04T01:29:29;16.00;;;3.00;;
15354;SDS011;7777;52.254;9.618;2023-02-04T01:31:55;15.83;;;3.50;;
15354;SDS011;7777;52.254;9.618;2023-02-04T01:34:21;22.23;;;3.33;;
15354;SDS011;7777;52.254;9.618;2023-02-04T01:36:47;14.90;;;3.10;;
15354;SDS011;7777;52.254;9.618;2023-02-04T01:39:12;17.23;;;3.47;;
15354;SDS011;7777;52.254;9.618;2023-02-04T01:41:39;13.97;;;3.03;;
15354;SDS011;7777;52.254;9.618;2023-02-04T01:44:04;14.23;;;3.23;;
15354;SDS011;7777;52.254;9.618;2023-02-04T01:46:30;14.67;;;2.67;;
15354;SDS011;7777;52.254;9.618;2023-02-04T01:48:59;17.27;;;3.37;;
15354;SDS011;7777;52.254;9.618;2023-02-04T01:51:26;12.57;;;2.67;;
15354;SDS011;7777;52.254;9.618;2023-02-04T01:53:54;13.17;;;2.33;;
15354;SDS011;7777;52.254;9.618;2023-02-04T01:56:24;7.43;;;1.70;;
15354;SDS011;7777;52.254;9.618;2023-02-04T01:58:52;12.13;;;2.87;;
15354;SDS011;7777;52.254;9.618;2023-02-04T02:01:39;8.10;;;2.50;;
15354;SDS011;7777;52.254;9.618;2023-02-04T02:04:11;11.07;;;2.47;;
15354;SDS011;7777;52.254;9.618;2023-02-04T02:06:54;11.37;;;2.07;;
15354;SDS011;7777;52.254;9.618;2023-02-04T02:09:23;9.73;;;2.00;;
15354;SDS011;7777;52.254;9.618;2023-02-04T02:11:50;12.07;;;2.17;;
15354;SDS011;7777;52.254;9.618;2023-02-04T02:14:16;13.93;;;2.53;;
15354;SDS011;7777;52.254;9.618;2023-02-04T02:16:42;12.80;;;2.63;;
15354;SDS011;7777;52.254;9.618;2023-02-04T02:19:09;7.70;;;2.00;;
15354;SDS011;7777;52.254;9.618;2023-02-04T02:21:44;11.63;;;2.37;;
15354;SDS011;7777;52.254;9.618;2023-02-04T02:24:28;11.20;;;2.07;;
15354;SDS011;7777;52.254;9.618;2023-02-04T02:26:56;6.87;;;2.23;;
15354;SDS011;7777;52.254;9.618;2023-02-04T02:29:31;11.73;;;2.13;;
15354;SDS011;7777;52.254;9.618;2023-02-04T02:31:57;7.67;;;1.87;;
15354;SDS011;7777;52.254;9.618;2023-02-04T02:34:24;11.67;;;2.43;;
15354;SDS011;7777;52.254;9.618;2023-02-04T02:36:51;11.37;;;1.87;;
15354;SDS011;7777;52.254;9.618;2023-02-04T02:39:17;10.57;;;2.17;;
15354;SDS011;7777;52.254;9.618;2023-02-04T02:41:43;11.63;;;1.83;;
15354;SDS011;7777;52.254;9.618;2023-02-04T02:44:10;8.40;;;1.80;;
15354;SDS011;7777;52.254;9.618;2023-02-04T02:46:38;7.93;;;1.50;;
15354;SDS011;7777;52.254;9.618;2023-02-04T02:49:04;6.40;;;1.73;;
15354;SDS011;7777;52.254;9.618;2023-02-04T02:51:31;5.43;;;1.70;;
15354;SDS011;7777;52.254;9.618;2023-02-04T02:53:56;7.57;;;1.87;;
15354;SDS011;7777;52.254;9.618;2023-02-04T02:56:22;12.37;;;1.70;;
15354;SDS011;7777;52.254;9.618;2023-02-04T02:58:48;9.43;;;1.57;;
15354;SDS011;7777;52.254;9.618;2023-02-04T03:01:14;5.87;;;1.47;;
15354;SDS011;7777;52.254;9.618;2023-02-04T03:03:47;7.37;;;1.57;;
15354;SDS011;7777;52.254;9.618;2023-02-04T03:06:16;4.63;;;1.63;;
15354;SDS011;7777;52.254;9.618;2023-02-04T03:08:50;10.70;;;2.20;;
15354;SDS011;7777;52.254;9.618;2023-02-04T03:11:19;7.77;;;1.77;;
15354;SDS011;7777;52.254;9.618;2023-02-04T03:13:46;7.90;;;1.73;;
15354;SDS011;7777;52.254;9.618;2023-02-04T03:16:14;12.87;;;1.87;;
15354;SDS011;7777;52.254;9.618;2023-02-04T03:18:40;11.30;;;2.40;;
15354;SDS011;7777;52.254;9.618;2023-02-04T03:21:06;6.87;;;2.13;;
15354;SDS011;7777;52.254;9.618;2023-02-04T03:23:32;7.10;;;2.07;;
15354;SDS011;7777;52.254;9.618;2023-02-04T03:26:03;6.00;;;1.70;;
15354;SDS011;7777;52.254;9.618;2023-02-04T03:28:29;4.40;;;1.60;;
15354;SDS011;7777;52.254;9.618;2023-02-04T03:30:56;3.10;;;1.10;;
15354;SDS011;7777;52.254;9.618;2023-02-04T03:33:23;1.30;;;0.90;;
15354;SDS011;7777;52.254;9.618;2023-02-04T03:35:55;2.97;;;1.37;;
15354;SDS011;7777;52.254;9.618;2023-02-04T03:38:23;2.00;;;1.07;;
15354;SDS011;7777;52.254;9.618;2023-02-04T03:40:49;3.83;;;1.20;;
15354;SDS011;7777;52.254;9.618;2023-02-04T03:43:15;0.93;;;0.83;;
15354;SDS011;7777;52.254;9.618;2023-02-04T03:45:41;1.50;;;1.10;;
15354;SDS011;7777;52.254;9.618;2023-02-04T03:48:06;1.33;;;0.70;;
15354;SDS011;7777;52.254;9.618;2023-02-04T03:50:32;2.67;;;0.97;;
15354;SDS011;7777;52.254;9.618;2023-02-04T03:52:58;3.83;;;1.10;;
15354;SDS011;7777;52.254;9.618;2023-02-04T03:55:24;2.50;;;1.20;;
15354;SDS011;7777;52.254;9.618;2023-02-04T03:57:50;1.57;;;1.30;;
15354;SDS011;7777;52.254;9.618;2023-02-04T04:00:17;2.40;;;0.90;;
15354;SDS011;7777;52.254;9.618;2023-02-04T04:02:43;3.20;;;0.90;;
15354;SDS011;7777;52.254;9.618;2023-02-04T04:05:09;2.77;;;1.40;;
15354;SDS011;7777;52.254;9.618;2023-02-04T04:07:35;3.87;;;1.13;;
15354;SDS011;7777;52.254;9.618;2023-02-04T04:10:02;1.20;;;0.97;;
15354;SDS011;7777;52.254;9.618;2023-02-04T04:12:28;3.73;;;1.17;;
15354;SDS011;7777;52.254;9.618;2023-02-04T04:14:54;2.53;;;0.90;;
15354;SDS011;7777;52.254;9.618;2023-02-04T04:17:19;1.33;;;0.90;;
15354;SDS011;7777;52.254;9.618;2023-02-04T04:19:45;3.50;;;1.07;;
15354;SDS011;7777;52.254;9.618;2023-02-04T04:22:11;3.30;;;1.17;;
15354;SDS011;7777;52.254;9.618;2023-02-04T04:24:37;3.03;;;0.90;;
15354;SDS011;7777;52.254;9.618;2023-02-04T04:27:02;1.57;;;1.00;;
15354;SDS011;7777;52.254;9.618;2023-02-04T04:29:28;2.80;;;1.20;;
15354;SDS011;7777;52.254;9.618;2023-02-04T04:31:54;1.67;;;1.00;;
15354;SDS011;7777;52.254;9.618;2023-02-04T04:34:19;2.60;;;1.30;;
15354;SDS011;7777;52.254;9.618;2023-02-04T04:36:45;2.87;;;1.10;;
15354;SDS011;7777;52.254;9.618;2023-02-04T04:39:11;5.20;;;1.10;;
15354;SDS011;7777;52.254;9.618;2023-02-04T04:41:37;2.00;;;1.00;;
15354;SDS011;7777;52.254;9.618;2023-02-04T04:44:02;4.03;;;1.20;;
15354;SDS011;7777;52.254;9.618;2023-02-04T04:46:28;3.03;;;1.17;;
15354;SDS011;7777;52.254;9.618;2023-02-04T04:48:54;2.47;;;1.00;;
15354;SDS011;7777;52.254;9.618;2023-02-04T04:51:20;1.00;;;0.83;;
15354;SDS011;7777;52.254;9.618;2023-02-04T04:53:45;2.00;;;0.90;;
15354;SDS011;7777;52.254;9.618;2023-02-04T04:56:11;2.67;;;1.07;;
15354;SDS011;7777;52.254;9.618;2023-02-04T04:58:37;1.40;;;0.80;;
15354;SDS011;7777;52.254;9.618;2023-02-04T05:01:03;6.63;;;1.17;;
15354;SDS011;7777;52.254;9.618;2023-02-04T05:03:29;2.50;;;1.07;;
15354;SDS011;7777;52.254;9.618;2023-02-04T05:05:55;3.33;;;1.47;;
15354;SDS011;7777;52.254;9.618;2023-02-04T05:08:26;1.80;;;1.00;;
15354;SDS011;7777;52.254;9.618;2023-02-04T05:29:07;3.20;;;1.47;;
15354;SDS011;7777;52.254;9.618;2023-02-04T05:31:41;1.73;;;1.10;;
15354;SDS011;7777;52.254;9.618;2023-02-04T05:34:07;2.77;;;1.23;;
15354;SDS011;7777;52.254;9.618;2023-02-04T05:36:34;2.03;;;1.03;;
15354;SDS011;7777;52.254;9.618;2023-02-04T05:39:10;3.20;;;1.27;;
15354;SDS011;7777;52.254;9.618;2023-02-04T05:42:48;4.17;;;1.00;;
15354;SDS011;7777;52.254;9.618;2023-02-04T05:45:15;1.83;;;1.33;;
15354;SDS011;7777;52.254;9.618;2023-02-04T05:47:43;1.97;;;1.27;;
15354;SDS011;7777;52.254;9.618;2023-02-04T05:50:09;2.47;;;1.10;;
15354;SDS011;7777;52.254;9.618;2023-02-04T05:52:35;2.43;;;1.33;;
15354;SDS011;7777;52.254;9.618;2023-02-04T05:55:01;2.33;;;1.10;;
15354;SDS011;7777;52.254;9.618;2023-02-04T05:57:27;4.73;;;1.27;;
15354;SDS011;7777;52.254;9.618;2023-02-04T05:59:52;1.63;;;1.03;;
15354;SDS011;7777;52.254;9.618;2023-02-04T06:02:18;5.33;;;1.30;;
15354;SDS011;7777;52.254;9.618;2023-02-04T06:04:44;2.53;;;1.23;;
15354;SDS011;7777;52.254;9.618;2023-02-04T06:07:10;2.97;;;1.17;;
15354;SDS011;7777;52.254;9.618;2023-02-04T06:09:36;1.70;;;1.10;;
15354;SDS011;7777;52.254;9.618;2023-02-04T06:12:02;2.43;;;1.00;;
15354;SDS011;7777;52.254;9.618;2023-02-04T06:14:28;2.30;;;1.27;;
15354;SDS011;7777;52.254;9.618;2023-02-04T06:16:54;3.53;;;1.53;;
15354;SDS011;7777;52.254;9.618;2023-02-04T06:19:19;3.07;;;1.07;;
15354;SDS011;7777;52.254;9.618;2023-02-04T06:21:45;3.17;;;0.90;;
15354;SDS011;7777;52.254;9.618;2023-02-04T06:24:11;1.37;;;0.90;;
15354;SDS011;7777;52.254;9.618;2023-02-04T06:26:37;2.53;;;1.00;;
15354;SDS011;7777;52.254;9.618;2023-02-04T06:29:02;1.30;;;0.90;;
15354;SDS011;7777;52.254;9.618;2023-02-04T06:31:28;1.97;;;0.83;;
15354;SDS011;7777;52.254;9.618;2023-02-04T06:33:54;1.77;;;1.10;;
15354;SDS011;7777;52.254;9.618;2023-02-04T06:36:20;1.30;;;0.90;;
15354;SDS011;7777;52.254;9.618;2023-02-04T06:38:46;1.13;;;0.70;;
15354;SDS011;7777;52.254;9.618;2023-02-04T06:41:11;1.27;;;0.80;;
15354;SDS011;7777;52.254;9.618;2023-02-04T06:43:37;3.43;;;0.90;;
15354;SDS011;7777;52.254;9.618;2023-02-04T06:46:03;1.43;;;0.77;;
15354;SDS011;7777;52.254;9.618;2023-02-04T06:48:29;2.17;;;1.00;;
15354;SDS011;7777;52.254;9.618;2023-02-04T06:50:54;1.73;;;1.00;;
15354;SDS011;7777;52.254;9.618;2023-02-04T06:53:20;3.63;;;1.57;;
15354;SDS011;7777;52.254;9.618;2023-02-04T06:55:46;5.03;;;1.60;;
15354;SDS011;7777;52.254;9.618;2023-02-04T06:58:12;1.77;;;1.33;;
15354;SDS011;7777;52.254;9.618;2023-02-04T07:00:38;2.07;;;1.50;;
15354;SDS011;7777;52.254;9.618;2023-02-04T07:03:03;1.70;;;1.10;;
15354;SDS011;7777;52.254;9.618;2023-02-04T07:05:31;3.50;;;1.60;;
15354;SDS011;7777;52.254;9.618;2023-02-04T07:08:01;3.97;;;1.67;;
15354;SDS011;7777;52.254;9.618;2023-02-04T07:10:27;3.43;;;1.60;;
15354;SDS011;7777;52.254;9.618;2023-02-04T07:12:53;6.40;;;3.60;;
15354;SDS011;7777;52.254;9.618;2023-02-04T07:15:19;10.40;;;5.60;;
15354;SDS011;7777;52.254;9.618;2023-02-04T07:17:45;9.50;;;5.17;;
15354;SDS011;7777;52.254;9.618;2023-02-04T07:20:11;12.43;;;5.83;;
15354;SDS011;7777;52.254;9.618;2023-02-04T07:22:37;15.17;;;5.80;;
15354;SDS011;7777;52.254;9.618;2023-02-04T07:25:02;8.93;;;4.03;;
15354;SDS011;7777;52.254;9.618;2023-02-04T07:27:29;7.03;;;3.77;;
15354;SDS011;7777;52.254;9.618;2023-02-04T07:29:54;12.53;;;3.13;;
15354;SDS011;7777;52.254;9.618;2023-02-04T07:32:20;4.87;;;2.70;;
15354;SDS011;7777;52.254;9.618;2023-02-04T07:34:46;6.37;;;2.50;;
15354;SDS011;7777;52.254;9.618;2023-02-04T07:37:12;5.13;;;2.37;;
15354;SDS011;7777;52.254;9.618;2023-02-04T07:39:39;4.53;;;2.33;;
15354;SDS011;7777;52.254;9.618;2023-02-04T07:42:05;4.13;;;2.40;;
15354;SDS011;7777;52.254;9.618;2023-02-04T07:44:30;3.37;;;1.93;;
15354;SDS011;7777;52.254;9.618;2023-02-04T07:46:56;5.27;;;2.67;;
15354;SDS011;7777;52.254;9.618;2023-02-04T07:49:22;5.77;;;2.37;;
15354;SDS011;7777;52.254;9.618;2023-02-04T07:51:50;4.23;;;2.30;;
15354;SDS011;7777;52.254;9.618;2023-02-04T07:54:22;5.70;;;2.93;;
15354;SDS011;7777;52.254;9.618;2023-02-04T07:56:48;4.03;;;2.10;;
15354;SDS011;7777;52.254;9.618;2023-02-04T07:59:13;3.93;;;2.30;;
15354;SDS011;7777;52.254;9.618;2023-02-04T08:01:39;5.23;;;2.43;;
15354;SDS011;7777;52.254;9.618;2023-02-04T08:04:05;4.10;;;2.20;;
15354;SDS011;7777;52.254;9.618;2023-02-04T08:06:31;3.80;;;2.23;;
15354;SDS011;7777;52.254;9.618;2023-02-04T08:08:56;3.40;;;2.13;;
15354;SDS011;7777;52.254;9.618;2023-02-04T08:11:22;3.93;;;2.33;;
15354;SDS011;7777;52.254;9.618;2023-02-04T08:13:48;3.80;;;2.30;;
15354;SDS011;7777;52.254;9.618;2023-02-04T08:16:14;3.60;;;2.17;;
15354;SDS011;7777;52.254;9.618;2023-02-04T08:18:39;4.43;;;2.40;;
15354;SDS011;7777;52.254;9.618;2023-02-04T08:21:05;4.00;;;2.03;;
15354;SDS011;7777;52.254;9.618;2023-02-04T08:23:31;2.87;;;2.00;;
15354;SDS011;7777;52.254;9.618;2023-02-04T08:25:57;3.07;;;1.93;;
15354;SDS011;7777;52.254;9.618;2023-02-04T08:28:24;4.70;;;2.20;;
15354;SDS011;7777;52.254;9.618;2023-02-04T08:30:50;3.80;;;2.00;;
15354;SDS011;7777;52.254;9.618;2023-02-04T08:33:16;4.43;;;2.60;;
15354;SDS011;7777;52.254;9.618;2023-02-04T08:35:41;3.07;;;1.90;;
15354;SDS011;7777;52.254;9.618;2023-02-04T08:38:07;4.93;;;2.13;;
15354;SDS011;7777;52.254;9.618;2023-02-04T08:40:33;4.27;;;2.70;;
15354;SDS011;7777;52.254;9.618;2023-02-04T08:42:59;6.13;;;2.83;;
15354;SDS011;7777;52.254;9.618;2023-02-04T08:45:24;3.63;;;2.57;;
15354;SDS011;7777;52.254;9.618;2023-02-04T08:47:50;3.73;;;2.00;;
15354;SDS011;7777;52.254;9.618;2023-02-04T08:50:16;4.00;;;2.20;;
15354;SDS011;7777;52.254;9.618;2023-02-04T08:52:42;4.57;;;2.40;;
15354;SDS011;7777;52.254;9.618;2023-02-04T08:55:08;3.50;;;1.70;;
15354;SDS011;7777;52.254;9.618;2023-02-04T08:57:35;4.70;;;2.10;;
15354;SDS011;7777;52.254;9.618;2023-02-04T09:00:01;4.53;;;1.80;;
15354;SDS011;7777;52.254;9.618;2023-02-04T09:02:28;5.20;;;2.23;;
15354;SDS011;7777;52.254;9.618;2023-02-04T09:04:53;4.33;;;2.23;;
15354;SDS011;7777;52.254;9.618;2023-02-04T09:07:19;4.40;;;2.17;;
15354;SDS011;7777;52.254;9.618;2023-02-04T09:09:45;4.73;;;2.30;;
15354;SDS011;7777;52.254;9.618;2023-02-04T09:12:13;3.00;;;1.90;;
15354;SDS011;7777;52.254;9.618;2023-02-04T09:14:39;5.27;;;2.27;;
15354;SDS011;7777;52.254;9.618;2023-02-04T09:17:04;3.80;;;2.00;;
15354;SDS011;7777;52.254;9.618;2023-02-04T09:19:31;3.80;;;2.00;;
15354;SDS011;7777;52.254;9.618;2023-02-04T09:21:57;5.17;;;2.30;;
15354;SDS011;7777;52.254;9.618;2023-02-04T09:24:23;5.13;;;2.13;;
15354;SDS011;7777;52.254;9.618;2023-02-04T09:26:49;5.30;;;2.20;;
15354;SDS011;7777;52.254;9.618;2023-02-04T09:29:14;9.47;;;2.17;;
15354;SDS011;7777;52.254;9.618;2023-02-04T09:31:40;3.93;;;2.03;;
15354;SDS011;7777;52.254;9.618;2023-02-04T09:34:06;4.00;;;2.27;;
15354;SDS011;7777;52.254;9.618;2023-02-04T09:36:32;3.03;;;1.93;;
15354;SDS011;7777;52.254;9.618;2023-02-04T09:39:02;2.90;;;1.40;;
15354;SDS011;7777;52.254;9.618;2023-02-04T09:41:30;5.97;;;1.70;;
15354;SDS011;7777;52.254;9.618;2023-02-04T09:43:57;3.53;;;1.30;;
15354;SDS011;7777;52.254;9.618;2023-02-04T09:46:24;1.77;;;1.20;;
15354;SDS011;7777;52.254;9.618;2023-02-04T09:48:52;3.47;;;1.50;;
15354;SDS011;7777;52.254;9.618;2023-02-04T09:51:20;3.03;;;1.40;;
15354;SDS011;7777;52.254;9.618;2023-02-04T09:53:50;4.07;;;1.93;;
15354;SDS011;7777;52.254;9.618;2023-02-04T09:56:18;2.43;;;1.37;;
15354;SDS011;7777;52.254;9.618;2023-02-04T09:58:44;4.63;;;1.50;;
15354;SDS011;7777;52.254;9.618;2023-02-04T10:01:14;3.30;;;1.43;;
15354;SDS011;7777;52.254;9.618;2023-02-04T10:03:45;7.90;;;1.47;;
15354;SDS011;7777;52.254;9.618;2023-02-04T10:06:18;2.63;;;1.53;;
15354;SDS011;7777;52.254;9.618;2023-02-04T10:08:46;1.77;;;1.00;;
15354;SDS011;7777;52.254;9.618;2023-02-04T10:11:13;4.17;;;1.60;;
15354;SDS011;7777;52.254;9.618;2023-02-04T10:13:42;4.43;;;1.30;;
15354;SDS011;7777;52.254;9.618;2023-02-04T10:16:18;2.80;;;1.50;;
15354;SDS011;7777;52.254;9.618;2023-02-04T10:18:47;2.07;;;0.97;;
15354;SDS011;7777;52.254;9.618;2023-02-04T10:21:21;4.90;;;1.10;;
15354;SDS011;7777;52.254;9.618;2023-02-04T10:23:56;5.30;;;1.50;;
15354;SDS011;7777;52.254;9.618;2023-02-04T10:26:25;3.63;;;1.57;;
15354;SDS011;7777;52.254;9.618;2023-02-04T10:29:13;2.77;;;1.40;;
15354;SDS011;7777;52.254;9.618;2023-02-04T10:31:43;3.03;;;1.40;;
15354;SDS011;7777;52.254;9.618;2023-02-04T10:34:32;5.13;;;1.57;;
15354;SDS011;7777;52.254;9.618;2023-02-04T10:37:18;3.70;;;1.33;;
15354;SDS011;7777;52.254;9.618;2023-02-04T10:39:46;3.83;;;1.50;;
15354;SDS011;7777;52.254;9.618;2023-02-04T10:42:19;4.33;;;1.50;;
15354;SDS011;7777;52.254;9.618;2023-02-04T10:44:51;4.33;;;1.97;;
15354;SDS011;7777;52.254;9.618;2023-02-04T10:47:18;2.70;;;1.30;;
15354;SDS011;7777;52.254;9.618;2023-02-04T10:49:54;3.07;;;1.73;;
15354;SDS011;7777;52.254;9.618;2023-02-04T10:52:21;2.67;;;1.70;;
15354;SDS011;7777;52.254;9.618;2023-02-04T10:54:53;3.00;;;1.90;;
15354;SDS011;7777;52.254;9.618;2023-02-04T10:57:23;4.00;;;1.60;;
15354;SDS011;7777;52.254;9.618;2023-02-04T10:59:53;2.33;;;1.60;;
15354;SDS011;7777;52.254;9.618;2023-02-04T11:04:56;5.70;;;2.20;;
15354;SDS011;7777;52.254;9.618;2023-02-04T11:07:22;3.30;;;1.80;;
15354;SDS011;7777;52.254;9.618;2023-02-04T11:09:48;4.70;;;2.10;;
15354;SDS011;7777;52.254;9.618;2023-02-04T11:12:57;3.13;;;1.80;;
15354;SDS011;7777;52.254;9.618;2023-02-04T11:18:11;2.10;;;1.37;;
15354;SDS011;7777;52.254;9.618;2023-02-04T11:20:50;3.10;;;1.50;;
15354;SDS011;7777;52.254;9.618;2023-02-04T11:39:39;4.07;;;1.50;;
15354;SDS011;7777;52.254;9.618;2023-02-04T11:42:21;3.00;;;1.17;;
15354;SDS011;7777;52.254;9.618;2023-02-04T11:45:10;4.03;;;1.70;;
15354;SDS011;7777;52.254;9.618;2023-02-04T11:47:39;2.20;;;1.27;;
15354;SDS011;7777;52.254;9.618;2023-02-04T11:50:15;3.03;;;1.57;;
15354;SDS011;7777;52.254;9.618;2023-02-04T11:52:54;4.00;;;1.40;;
15354;SDS011;7777;52.254;9.618;2023-02-04T11:55:21;3.87;;;1.60;;
15354;SDS011;7777;52.254;9.618;2023-02-04T11:57:51;2.07;;;1.37;;
15354;SDS011;7777;52.254;9.618;2023-02-04T12:00:27;1.93;;;1.30;;
15354;SDS011;7777;52.254;9.618;2023-02-04T12:03:01;3.20;;;1.30;;
15354;SDS011;7777;52.254;9.618;2023-02-04T12:05:40;3.07;;;1.40;;
15354;SDS011;7777;52.254;9.618;2023-02-04T12:08:09;2.30;;;1.53;;
15354;SDS011;7777;52.254;9.618;2023-02-04T12:11:07;3.37;;;1.40;;
15354;SDS011;7777;52.254;9.618;2023-02-04T12:13:54;3.47;;;1.63;;
15354;SDS011;7777;52.254;9.618;2023-02-04T12:16:23;4.57;;;1.63;;
15354;SDS011;7777;52.254;9.618;2023-02-04T12:18:49;3.73;;;1.43;;
15354;SDS011;7777;52.254;9.618;2023-02-04T12:21:15;3.33;;;1.93;;
15354;SDS011;7777;52.254;9.618;2023-02-04T12:23:43;4.30;;;1.63;;
15354;SDS011;7777;52.254;9.618;2023-02-04T12:26:09;3.30;;;1.63;;
15354;SDS011;7777;52.254;9.618;2023-02-04T12:28:35;4.37;;;1.60;;
15354;SDS011;7777;52.254;9.618;2023-02-04T12:31:01;1.80;;;1.27;;
15354;SDS011;7777;52.254;9.618;2023-02-04T12:33:27;5.03;;;1.90;;
15354;SDS011;7777;52.254;9.618;2023-02-04T12:35:53;2.53;;;1.50;;
15354;SDS011;7777;52.254;9.618;2023-02-04T12:38:19;3.83;;;1.43;;
15354;SDS011;7777;52.254;9.618;2023-02-04T12:40:45;3.17;;;1.57;;
15354;SDS011;7777;52.254;9.618;2023-02-04T12:43:11;4.63;;;1.80;;
15354;SDS011;7777;52.254;9.618;2023-02-04T12:45:37;3.43;;;1.37;;
15354;SDS011;7777;52.254;9.618;2023-02-04T12:48:04;2.67;;;1.17;;
15354;SDS011;7777;52.254;9.618;2023-02-04T12:50:30;4.87;;;1.47;;
15354;SDS011;7777;52.254;9.618;2023-02-04T12:52:56;3.33;;;1.30;;
15354;SDS011;7777;52.254;9.618;2023-02-04T12:55:24;3.20;;;1.53;;
15354;SDS011;7777;52.254;9.618;2023-02-04T12:57:51;2.87;;;1.37;;
15354;SDS011;7777;52.254;9.618;2023-02-04T13:00:18;5.33;;;1.87;;
15354;SDS011;7777;52.254;9.618;2023-02-04T13:02:45;2.30;;;1.47;;
15354;SDS011;7777;52.254;9.618;2023-02-04T13:05:12;3.07;;;1.50;;
15354;SDS011;7777;52.254;9.618;2023-02-04T13:07:39;4.77;;;1.53;;
15354;SDS011;7777;52.254;9.618;2023-02-04T13:10:05;3.03;;;1.37;;
15354;SDS011;7777;52.254;9.618;2023-02-04T13:12:32;2.20;;;1.30;;
15354;SDS011;7777;52.254;9.618;2023-02-04T13:14:58;3.53;;;1.20;;
15354;SDS011;7777;52.254;9.618;2023-02-04T13:17:24;3.17;;;1.30;;
15354;SDS011;7777;52.254;9.618;2023-02-04T13:19:50;2.00;;;1.30;;
15354;SDS011;7777;52.254;9.618;2023-02-04T13:22:15;1.60;;;1.20;;
15354;SDS011;7777;52.254;9.618;2023-02-04T13:24:41;4.67;;;1.73;;
15354;SDS011;7777;52.254;9.618;2023-02-04T13:27:07;4.07;;;1.50;;
15354;SDS011;7777;52.254;9.618;2023-02-04T13:29:33;3.00;;;1.80;;
15354;SDS011;7777;52.254;9.618;2023-02-04T13:31:59;3.23;;;1.50;;
15354;SDS011;7777;52.254;9.618;2023-02-04T13:34:26;2.67;;;1.50;;
15354;SDS011;7777;52.254;9.618;2023-02-04T13:36:52;2.80;;;1.40;;
15354;SDS011;7777;52.254;9.618;2023-02-04T13:39:18;3.53;;;1.53;;
15354;SDS011;7777;52.254;9.618;2023-02-04T13:41:44;4.00;;;1.30;;
15354;SDS011;7777;52.254;9.618;2023-02-04T13:44:10;4.17;;;1.77;;
15354;SDS011;7777;52.254;9.618;2023-02-04T13:46:36;2.83;;;1.40;;
15354;SDS011;7777;52.254;9.618;2023-02-04T13:49:01;3.60;;;1.97;;
15354;SDS011;7777;52.254;9.618;2023-02-04T13:51:28;3.73;;;1.70;;
15354;SDS011;7777;52.254;9.618;2023-02-04T13:53:54;5.57;;;2.77;;
15354;SDS011;7777;52.254;9.618;2023-02-04T13:56:20;4.73;;;2.40;;
15354;SDS011;7777;52.254;9.618;2023-02-04T13:58:46;4.33;;;2.10;;
15354;SDS011;7777;52.254;9.618;2023-02-04T14:01:12;4.53;;;2.30;;
15354;SDS011;7777;52.254;9.618;2023-02-04T14:03:38;6.00;;;2.47;;
15354;SDS011;7777;52.254;9.618;2023-02-04T14:06:04;5.33;;;2.13;;
15354;SDS011;7777;52.254;9.618;2023-02-04T14:08:30;4.10;;;2.13;;
15354;SDS011;7777;52.254;9.618;2023-02-04T14:10:57;3.50;;;1.83;;
15354;SDS011;7777;52.254;9.618;2023-02-04T14:13:23;4.17;;;1.97;;
15354;SDS011;7777;52.254;9.618;2023-02-04T14:15:48;4.77;;;1.87;;
15354;SDS011;7777;52.254;9.618;2023-02-04T14:18:14;5.60;;;2.00;;
15354;SDS011;7777;52.254;9.618;2023-02-04T14:20:43;6.60;;;1.67;;
15354;SDS011;7777;52.254;9.618;2023-02-04T14:23:09;3.47;;;1.87;;
15354;SDS011;7777;52.254;9.618;2023-02-04T14:25:36;3.70;;;1.70;;
15354;SDS011;7777;52.254;9.618;2023-02-04T14:28:02;3.93;;;1.50;;
15354;SDS011;7777;52.254;9.618;2023-02-04T14:30:29;3.43;;;1.90;;
15354;SDS011;7777;52.254;9.618;2023-02-04T14:32:56;4.03;;;1.53;;
15354;SDS011;7777;52.254;9.618;2023-02-04T14:35:22;3.43;;;1.40;;
15354;SDS011;7777;52.254;9.618;2023-02-04T14:37:49;3.10;;;1.70;;
15354;SDS011;7777;52.254;9.618;2023-02-04T14:40:17;4.90;;;2.23;;
15354;SDS011;7777;52.254;9.618;2023-02-04T14:42:44;3.40;;;2.00;;
15354;SDS011;7777;52.254;9.618;2023-02-04T14:45:11;3.13;;;1.97;;
15354;SDS011;7777;52.254;9.618;2023-02-04T14:47:39;4.83;;;2.17;;
15354;SDS011;7777;52.254;9.618;2023-02-04T14:50:06;3.20;;;2.00;;
15354;SDS011;7777;52.254;9.618;2023-02-04T14:52:37;3.23;;;1.83;;
15354;SDS011;7777;52.254;9.618;2023-02-04T14:55:02;4.97;;;2.03;;
15354;SDS011;7777;52.254;9.618;2023-02-04T14:57:28;2.77;;;1.70;;
15354;SDS011;7777;52.254;9.618;2023-02-04T14:59:54;4.00;;;1.80;;
15354;SDS011;7777;52.254;9.618;2023-02-04T15:02:20;5.27;;;1.63;;
15354;SDS011;7777;52.254;9.618;2023-02-04T15:04:46;2.43;;;1.60;;
15354;SDS011;7777;52.254;9.618;2023-02-04T15:07:13;3.13;;;1.53;;
15354;SDS011;7777;52.254;9.618;2023-02-04T15:09:39;5.83;;;1.80;;
15354;SDS011;7777;52.254;9.618;2023-02-04T15:12:08;5.57;;;2.23;;
15354;SDS011;7777;52.254;9.618;2023-02-04T15:14:34;5.70;;;2.37;;
15354;SDS011;7777;52.254;9.618;2023-02-04T15:17:00;3.37;;;1.80;;
15354;SDS011;7777;52.254;9.618;2023-02-04T15:19:26;5.10;;;2.10;;
15354;SDS011;7777;52.254;9.618;2023-02-04T15:21:52;6.73;;;2.80;;
15354;SDS011;7777;52.254;9.618;2023-02-04T15:24:18;3.70;;;1.93;;
15354;SDS011;7777;52.254;9.618;2023-02-04T15:26:45;5.00;;;2.07;;
15354;SDS011;7777;52.254;9.618;2023-02-04T15:29:11;5.33;;;1.97;;
15354;SDS011;7777;52.254;9.618;2023-02-04T15:31:37;3.63;;;2.20;;
15354;SDS011;7777;52.254;9.618;2023-02-04T15:34:02;3.93;;;2.17;;
15354;SDS011;7777;52.254;9.618;2023-02-04T15:36:28;5.23;;;2.50;;
15354;SDS011;7777;52.254;9.618;2023-02-04T15:38:54;4.20;;;2.17;;
15354;SDS011;7777;52.254;9.618;2023-02-04T15:41:20;5.20;;;2.50;;